Decoded Metar for LEBB (BILBAO in SPAIN) (IATA:BIO) | Meteo·Mobile Aviation Weather
aviador You're here:

LEBB Decoded Metar

BILBAO in SPAIN
Report Time2020-02-18 22:30:00
UTC Time2020-02-18 22:59:14
Flight Rules vfr VFR
Wind100° at 04 kt
W.Decomp.*RWY 10: 4.0 kt HW 0.1 kt RCW
RWY 12: 3.8 kt HW 1.2 kt LCW
Visibility9999 m
Phenomena:N/A
Clouds:Few 030 Hf
Expected CloudBase > 800 ft AGL from Temp-Dew spread
CeilingNone
Temp06°C (ISA -9)
Dew Point04°C (87% RH)
AAT3.2°C
QNH1036 hPa
Density Alt-1,611 ft
Elevation112 ft
Report Wrong Elevation
Raw Report
LEBB 182230Z 10004KT 9999 FEW030 06/04 Q1036 NOSIG=

Extra information for LEBB:More info

Metar Taf Metar & Taf Last 4 Metars F.Rules Stats Wind Profile Meteogram Temp Stats Airport Information Weather charts Add Link Nearby VenuesMetar ALERT Operation Metar Decoded Social comments